sensor_id;sensor_type;location;lat;lon;timestamp;P1;durP1;ratioP1;P2;durP2;ratioP2
41167;SDS011;26906;45.658;9.272;2022-11-15T06:37:08;20.80;;;15.45;;
41167;SDS011;26906;45.658;9.272;2022-11-15T06:39:53;20.83;;;15.10;;
41167;SDS011;26906;45.658;9.272;2022-11-15T06:42:37;20.38;;;15.70;;
41167;SDS011;26906;45.658;9.272;2022-11-15T06:48:05;19.55;;;15.10;;
41167;SDS011;26906;45.658;9.272;2022-11-15T06:53:37;16.02;;;14.13;;
41167;SDS011;26906;45.658;9.272;2022-11-15T06:56:21;19.63;;;15.40;;
41167;SDS011;26906;45.658;9.272;2022-11-15T06:59:06;20.27;;;15.52;;
41167;SDS011;26906;45.658;9.272;2022-11-15T07:01:50;18.90;;;14.77;;
41167;SDS011;26906;45.658;9.272;2022-11-15T07:07:19;19.08;;;15.15;;
41167;SDS011;26906;45.658;9.272;2022-11-15T07:12:48;22.00;;;16.13;;
41167;SDS011;26906;45.658;9.272;2022-11-15T07:15:32;21.88;;;17.55;;
41167;SDS011;26906;45.658;9.272;2022-11-15T07:18:25;22.88;;;17.65;;
41167;SDS011;26906;45.658;9.272;2022-11-15T07:23:56;27.50;;;19.90;;
41167;SDS011;26906;45.658;9.272;2022-11-15T07:26:39;27.65;;;20.80;;
41167;SDS011;26906;45.658;9.272;2022-11-15T07:29:24;30.00;;;21.92;;
41167;SDS011;26906;45.658;9.272;2022-11-15T07:34:53;31.10;;;22.27;;
41167;SDS011;26906;45.658;9.272;2022-11-15T07:37:37;32.25;;;23.27;;
41167;SDS011;26906;45.658;9.272;2022-11-15T07:43:06;31.90;;;22.60;;
41167;SDS011;26906;45.658;9.272;2022-11-15T07:45:51;33.33;;;24.83;;
41167;SDS011;26906;45.658;9.272;2022-11-15T07:51:20;36.38;;;24.50;;
41167;SDS011;26906;45.658;9.272;2022-11-15T07:56:48;33.30;;;24.20;;
41167;SDS011;26906;45.658;9.272;2022-11-15T08:02:19;36.25;;;23.88;;
41167;SDS011;26906;45.658;9.272;2022-11-15T08:05:03;35.20;;;24.40;;
41167;SDS011;26906;45.658;9.272;2022-11-15T08:07:48;34.30;;;25.48;;
41167;SDS011;26906;45.658;9.272;2022-11-15T08:10:32;32.58;;;24.50;;
41167;SDS011;26906;45.658;9.272;2022-11-15T08:13:20;34.78;;;25.58;;
41167;SDS011;26906;45.658;9.272;2022-11-15T08:16:04;36.70;;;24.98;;
41167;SDS011;26906;45.658;9.272;2022-11-15T08:18:49;30.70;;;23.48;;
41167;SDS011;26906;45.658;9.272;2022-11-15T08:21:33;36.30;;;24.50;;
41167;SDS011;26906;45.658;9.272;2022-11-15T08:24:18;33.22;;;24.77;;
41167;SDS011;26906;45.658;9.272;2022-11-15T08:27:03;31.40;;;22.70;;
41167;SDS011;26906;45.658;9.272;2022-11-15T08:32:32;28.70;;;22.13;;
41167;SDS011;26906;45.658;9.272;2022-11-15T08:35:16;35.25;;;24.23;;
41167;SDS011;26906;45.658;9.272;2022-11-15T08:38:01;31.05;;;23.45;;
41167;SDS011;26906;45.658;9.272;2022-11-15T08:40:45;30.83;;;23.70;;
41167;SDS011;26906;45.658;9.272;2022-11-15T08:46:13;28.83;;;22.08;;
41167;SDS011;26906;45.658;9.272;2022-11-15T08:51:41;27.05;;;20.52;;
41167;SDS011;26906;45.658;9.272;2022-11-15T08:57:10;23.85;;;17.77;;
41167;SDS011;26906;45.658;9.272;2022-11-15T08:59:54;22.88;;;16.73;;
41167;SDS011;26906;45.658;9.272;2022-11-15T09:02:39;24.48;;;17.13;;
41167;SDS011;26906;45.658;9.272;2022-11-15T09:05:24;23.83;;;17.92;;
41167;SDS011;26906;45.658;9.272;2022-11-15T09:08:08;25.55;;;18.45;;
41167;SDS011;26906;45.658;9.272;2022-11-15T09:10:52;20.58;;;16.40;;
41167;SDS011;26906;45.658;9.272;2022-11-15T09:13:37;21.02;;;15.70;;
41167;SDS011;26906;45.658;9.272;2022-11-15T09:16:21;18.52;;;15.38;;
41167;SDS011;26906;45.658;9.272;2022-11-15T09:19:06;18.35;;;14.55;;
41167;SDS011;26906;45.658;9.272;2022-11-15T09:21:50;18.42;;;14.93;;
41167;SDS011;26906;45.658;9.272;2022-11-15T09:24:35;20.40;;;16.60;;
41167;SDS011;26906;45.658;9.272;2022-11-15T09:27:19;22.25;;;17.58;;
41167;SDS011;26906;45.658;9.272;2022-11-15T09:30:03;21.20;;;16.63;;
41167;SDS011;26906;45.658;9.272;2022-11-15T09:32:47;21.40;;;17.35;;
41167;SDS011;26906;45.658;9.272;2022-11-15T09:35:32;22.73;;;16.80;;
41167;SDS011;26906;45.658;9.272;2022-11-15T09:47:10;26.00;;;18.45;;
41167;SDS011;26906;45.658;9.272;2022-11-15T09:50:27;27.30;;;18.55;;
41167;SDS011;26906;45.658;9.272;2022-11-15T09:52:58;28.30;;;19.23;;
41167;SDS011;26906;45.658;9.272;2022-11-15T09:55:28;27.00;;;20.70;;
41167;SDS011;26906;45.658;9.272;2022-11-15T09:58:03;25.90;;;19.08;;
41167;SDS011;26906;45.658;9.272;2022-11-15T10:00:44;27.50;;;20.38;;
41167;SDS011;26906;45.658;9.272;2022-11-15T10:03:34;24.83;;;20.02;;
41167;SDS011;26906;45.658;9.272;2022-11-15T10:06:04;24.77;;;20.05;;
41167;SDS011;26906;45.658;9.272;2022-11-15T10:11:08;29.40;;;20.17;;
41167;SDS011;26906;45.658;9.272;2022-11-15T10:13:36;28.42;;;20.40;;
41167;SDS011;26906;45.658;9.272;2022-11-15T10:21:29;28.58;;;20.73;;
41167;SDS011;26906;45.658;9.272;2022-11-15T10:24:18;30.23;;;20.08;;
41167;SDS011;26906;45.658;9.272;2022-11-15T10:26:48;32.08;;;20.60;;
41167;SDS011;26906;45.658;9.272;2022-11-15T10:29:18;29.23;;;20.20;;
41167;SDS011;26906;45.658;9.272;2022-11-15T10:31:45;30.67;;;20.48;;
41167;SDS011;26906;45.658;9.272;2022-11-15T10:34:15;26.27;;;19.83;;
41167;SDS011;26906;45.658;9.272;2022-11-15T10:39:18;26.77;;;20.02;;
41167;SDS011;26906;45.658;9.272;2022-11-15T10:41:44;25.05;;;18.90;;
41167;SDS011;26906;45.658;9.272;2022-11-15T10:46:41;27.95;;;19.48;;
41167;SDS011;26906;45.658;9.272;2022-11-15T10:54:21;26.27;;;18.77;;
41167;SDS011;26906;45.658;9.272;2022-11-15T10:56:51;25.60;;;19.52;;
41167;SDS011;26906;45.658;9.272;2022-11-15T10:59:31;29.55;;;19.58;;
41167;SDS011;26906;45.658;9.272;2022-11-15T11:02:01;26.90;;;20.20;;
41167;SDS011;26906;45.658;9.272;2022-11-15T11:04:27;31.00;;;20.38;;
41167;SDS011;26906;45.658;9.272;2022-11-15T11:06:56;30.88;;;20.90;;
41167;SDS011;26906;45.658;9.272;2022-11-15T11:12:01;34.33;;;22.35;;
41167;SDS011;26906;45.658;9.272;2022-11-15T11:14:29;35.03;;;22.90;;
41167;SDS011;26906;45.658;9.272;2022-11-15T11:23:03;29.15;;;21.80;;
41167;SDS011;26906;45.658;9.272;2022-11-15T11:33:46;30.00;;;22.55;;
41167;SDS011;26906;45.658;9.272;2022-11-15T11:37:44;32.22;;;23.38;;
41167;SDS011;26906;45.658;9.272;2022-11-15T11:39:53;34.72;;;23.77;;
41167;SDS011;26906;45.658;9.272;2022-11-15T11:50:36;28.40;;;22.42;;
41167;SDS011;26906;45.658;9.272;2022-11-15T11:53:13;28.95;;;22.58;;
41167;SDS011;26906;45.658;9.272;2022-11-15T11:55:54;26.90;;;21.90;;
41167;SDS011;26906;45.658;9.272;2022-11-15T12:00:56;28.02;;;21.95;;
41167;SDS011;26906;45.658;9.272;2022-11-15T12:03:29;26.42;;;20.30;;
41167;SDS011;26906;45.658;9.272;2022-11-15T12:06:46;24.98;;;20.60;;
41167;SDS011;26906;45.658;9.272;2022-11-15T12:11:35;24.70;;;20.10;;
41167;SDS011;26906;45.658;9.272;2022-11-15T12:14:27;26.63;;;20.67;;
41167;SDS011;26906;45.658;9.272;2022-11-15T12:17:10;28.17;;;21.98;;
41167;SDS011;26906;45.658;9.272;2022-11-15T12:19:37;28.10;;;21.88;;
41167;SDS011;26906;45.658;9.272;2022-11-15T12:22:08;28.73;;;21.52;;
41167;SDS011;26906;45.658;9.272;2022-11-15T12:24:40;27.73;;;22.52;;
41167;SDS011;26906;45.658;9.272;2022-11-15T12:27:15;31.02;;;21.67;;
41167;SDS011;26906;45.658;9.272;2022-11-15T12:29:53;24.95;;;21.65;;
41167;SDS011;26906;45.658;9.272;2022-11-15T12:32:29;22.10;;;18.60;;
41167;SDS011;26906;45.658;9.272;2022-11-15T12:35:01;23.30;;;18.67;;
41167;SDS011;26906;45.658;9.272;2022-11-15T12:37:33;23.00;;;18.35;;
41167;SDS011;26906;45.658;9.272;2022-11-15T12:45:39;24.67;;;19.25;;
41167;SDS011;26906;45.658;9.272;2022-11-15T13:01:09;29.00;;;22.08;;
41167;SDS011;26906;45.658;9.272;2022-11-15T13:03:35;26.98;;;21.13;;
41167;SDS011;26906;45.658;9.272;2022-11-15T13:06:38;27.85;;;21.52;;
41167;SDS011;26906;45.658;9.272;2022-11-15T13:11:54;28.13;;;23.02;;
41167;SDS011;26906;45.658;9.272;2022-11-15T13:19:47;30.85;;;22.67;;
41167;SDS011;26906;45.658;9.272;2022-11-15T13:25:12;32.85;;;23.70;;
41167;SDS011;26906;45.658;9.272;2022-11-15T13:27:45;27.17;;;22.80;;
41167;SDS011;26906;45.658;9.272;2022-11-15T13:30:27;31.75;;;24.48;;
41167;SDS011;26906;45.658;9.272;2022-11-15T13:32:54;31.23;;;25.42;;
41167;SDS011;26906;45.658;9.272;2022-11-15T13:35:27;31.25;;;25.55;;
41167;SDS011;26906;45.658;9.272;2022-11-15T13:37:56;34.25;;;27.50;;
41167;SDS011;26906;45.658;9.272;2022-11-15T13:40:33;31.33;;;25.08;;
41167;SDS011;26906;45.658;9.272;2022-11-15T13:43:13;32.97;;;26.88;;
41167;SDS011;26906;45.658;9.272;2022-11-15T13:48:35;33.35;;;26.08;;
41167;SDS011;26906;45.658;9.272;2022-11-15T13:51:02;34.03;;;26.30;;
41167;SDS011;26906;45.658;9.272;2022-11-15T13:53:32;33.42;;;27.02;;
41167;SDS011;26906;45.658;9.272;2022-11-15T13:56:01;33.88;;;26.75;;
41167;SDS011;26906;45.658;9.272;2022-11-15T13:58:29;31.55;;;26.95;;
41167;SDS011;26906;45.658;9.272;2022-11-15T14:01:02;33.38;;;27.67;;
41167;SDS011;26906;45.658;9.272;2022-11-15T14:03:34;34.03;;;27.30;;
41167;SDS011;26906;45.658;9.272;2022-11-15T14:06:10;34.85;;;28.77;;
41167;SDS011;26906;45.658;9.272;2022-11-15T14:08:38;36.78;;;29.40;;
41167;SDS011;26906;45.658;9.272;2022-11-15T14:11:26;36.90;;;28.42;;
41167;SDS011;26906;45.658;9.272;2022-11-15T14:16:36;34.95;;;28.80;;
41167;SDS011;26906;45.658;9.272;2022-11-15T14:19:04;34.13;;;28.08;;
41167;SDS011;26906;45.658;9.272;2022-11-15T14:21:31;33.15;;;28.77;;
41167;SDS011;26906;45.658;9.272;2022-11-15T14:24:17;36.58;;;30.13;;
41167;SDS011;26906;45.658;9.272;2022-11-15T14:26:45;36.08;;;29.20;;
41167;SDS011;26906;45.658;9.272;2022-11-15T14:29:29;36.15;;;29.63;;
41167;SDS011;26906;45.658;9.272;2022-11-15T14:34:42;38.75;;;29.65;;
41167;SDS011;26906;45.658;9.272;2022-11-15T14:37:16;32.05;;;27.40;;
41167;SDS011;26906;45.658;9.272;2022-11-15T14:39:50;34.42;;;28.75;;
41167;SDS011;26906;45.658;9.272;2022-11-15T14:42:23;34.20;;;27.55;;
41167;SDS011;26906;45.658;9.272;2022-11-15T14:44:49;31.80;;;27.40;;
41167;SDS011;26906;45.658;9.272;2022-11-15T14:47:15;36.78;;;29.27;;
41167;SDS011;26906;45.658;9.272;2022-11-15T14:49:41;34.05;;;29.17;;
41167;SDS011;26906;45.658;9.272;2022-11-15T14:52:21;40.67;;;28.27;;
41167;SDS011;26906;45.658;9.272;2022-11-15T14:54:53;35.05;;;27.20;;
41167;SDS011;26906;45.658;9.272;2022-11-15T14:57:20;36.22;;;28.35;;
41167;SDS011;26906;45.658;9.272;2022-11-15T14:59:52;37.72;;;28.00;;
41167;SDS011;26906;45.658;9.272;2022-11-15T15:02:19;35.92;;;27.83;;
41167;SDS011;26906;45.658;9.272;2022-11-15T15:04:47;38.35;;;30.05;;
41167;SDS011;26906;45.658;9.272;2022-11-15T15:07:14;37.78;;;28.63;;
41167;SDS011;26906;45.658;9.272;2022-11-15T15:09:40;36.75;;;28.85;;
41167;SDS011;26906;45.658;9.272;2022-11-15T15:12:12;39.72;;;30.45;;
41167;SDS011;26906;45.658;9.272;2022-11-15T15:14:44;39.38;;;29.73;;
41167;SDS011;26906;45.658;9.272;2022-11-15T15:17:11;35.85;;;28.60;;
41167;SDS011;26906;45.658;9.272;2022-11-15T15:19:37;36.40;;;30.52;;
41167;SDS011;26906;45.658;9.272;2022-11-15T15:22:03;40.75;;;30.50;;
41167;SDS011;26906;45.658;9.272;2022-11-15T15:24:29;39.33;;;31.48;;
41167;SDS011;26906;45.658;9.272;2022-11-15T15:26:55;41.10;;;32.83;;
41167;SDS011;26906;45.658;9.272;2022-11-15T15:29:20;37.97;;;30.25;;
41167;SDS011;26906;45.658;9.272;2022-11-15T15:31:52;40.88;;;30.60;;
41167;SDS011;26906;45.658;9.272;2022-11-15T15:34:21;38.60;;;30.70;;
41167;SDS011;26906;45.658;9.272;2022-11-15T15:36:46;37.83;;;30.35;;
41167;SDS011;26906;45.658;9.272;2022-11-15T15:39:12;39.05;;;30.73;;
41167;SDS011;26906;45.658;9.272;2022-11-15T15:41:38;38.97;;;29.02;;
41167;SDS011;26906;45.658;9.272;2022-11-15T15:44:03;40.83;;;30.38;;
41167;SDS011;26906;45.658;9.272;2022-11-15T15:46:32;39.65;;;30.83;;
41167;SDS011;26906;45.658;9.272;2022-11-15T15:48:59;35.75;;;28.67;;
41167;SDS011;26906;45.658;9.272;2022-11-15T15:51:25;41.30;;;29.40;;
41167;SDS011;26906;45.658;9.272;2022-11-15T15:53:51;36.78;;;29.58;;
41167;SDS011;26906;45.658;9.272;2022-11-15T15:56:21;36.88;;;30.08;;
41167;SDS011;26906;45.658;9.272;2022-11-15T15:58:47;37.28;;;30.10;;
41167;SDS011;26906;45.658;9.272;2022-11-15T16:01:13;38.15;;;28.25;;
41167;SDS011;26906;45.658;9.272;2022-11-15T16:03:38;37.70;;;27.98;;
41167;SDS011;26906;45.658;9.272;2022-11-15T16:06:04;36.83;;;27.55;;
41167;SDS011;26906;45.658;9.272;2022-11-15T16:08:50;37.50;;;29.45;;
41167;SDS011;26906;45.658;9.272;2022-11-15T16:11:16;33.72;;;26.73;;
41167;SDS011;26906;45.658;9.272;2022-11-15T16:13:41;36.60;;;28.83;;
41167;SDS011;26906;45.658;9.272;2022-11-15T16:16:07;37.33;;;30.17;;
41167;SDS011;26906;45.658;9.272;2022-11-15T16:18:37;30.15;;;23.98;;
41167;SDS011;26906;45.658;9.272;2022-11-15T16:21:03;33.05;;;24.67;;
41167;SDS011;26906;45.658;9.272;2022-11-15T16:23:28;29.55;;;22.45;;
41167;SDS011;26906;45.658;9.272;2022-11-15T16:26:00;29.90;;;22.33;;
41167;SDS011;26906;45.658;9.272;2022-11-15T16:28:29;30.05;;;23.10;;
41167;SDS011;26906;45.658;9.272;2022-11-15T16:31:02;30.70;;;23.15;;
41167;SDS011;26906;45.658;9.272;2022-11-15T16:33:30;28.90;;;22.45;;
41167;SDS011;26906;45.658;9.272;2022-11-15T16:35:56;32.75;;;21.85;;
41167;SDS011;26906;45.658;9.272;2022-11-15T16:38:22;27.13;;;22.30;;
41167;SDS011;26906;45.658;9.272;2022-11-15T16:40:48;31.13;;;22.92;;
41167;SDS011;26906;45.658;9.272;2022-11-15T16:43:14;30.90;;;22.88;;
41167;SDS011;26906;45.658;9.272;2022-11-15T16:45:40;29.52;;;22.88;;
41167;SDS011;26906;45.658;9.272;2022-11-15T16:48:06;27.48;;;22.42;;
41167;SDS011;26906;45.658;9.272;2022-11-15T16:53:05;28.95;;;21.67;;
41167;SDS011;26906;45.658;9.272;2022-11-15T16:55:31;26.75;;;20.75;;
41167;SDS011;26906;45.658;9.272;2022-11-15T16:57:58;26.67;;;21.05;;
41167;SDS011;26906;45.658;9.272;2022-11-15T17:00:24;28.90;;;21.40;;
41167;SDS011;26906;45.658;9.272;2022-11-15T17:02:50;25.95;;;20.55;;
41167;SDS011;26906;45.658;9.272;2022-11-15T17:05:18;26.00;;;19.67;;
41167;SDS011;26906;45.658;9.272;2022-11-15T17:07:47;26.15;;;20.88;;
41167;SDS011;26906;45.658;9.272;2022-11-15T17:10:14;26.85;;;21.08;;
41167;SDS011;26906;45.658;9.272;2022-11-15T17:12:40;25.40;;;19.52;;
41167;SDS011;26906;45.658;9.272;2022-11-15T17:15:06;27.55;;;21.08;;
41167;SDS011;26906;45.658;9.272;2022-11-15T17:17:32;29.20;;;22.13;;
41167;SDS011;26906;45.658;9.272;2022-11-15T17:19:58;27.38;;;21.13;;
41167;SDS011;26906;45.658;9.272;2022-11-15T17:22:24;29.67;;;22.38;;
41167;SDS011;26906;45.658;9.272;2022-11-15T17:24:49;27.48;;;21.88;;
41167;SDS011;26906;45.658;9.272;2022-11-15T17:27:18;27.25;;;22.10;;
41167;SDS011;26906;45.658;9.272;2022-11-15T17:29:47;28.40;;;22.50;;
41167;SDS011;26906;45.658;9.272;2022-11-15T17:32:13;28.00;;;21.75;;
41167;SDS011;26906;45.658;9.272;2022-11-15T17:34:38;28.52;;;22.45;;
41167;SDS011;26906;45.658;9.272;2022-11-15T17:37:04;26.88;;;21.45;;
41167;SDS011;26906;45.658;9.272;2022-11-15T17:39:29;24.65;;;20.23;;
41167;SDS011;26906;45.658;9.272;2022-11-15T17:41:55;29.60;;;20.38;;
41167;SDS011;26906;45.658;9.272;2022-11-15T17:44:21;25.98;;;20.10;;
41167;SDS011;26906;45.658;9.272;2022-11-15T17:46:47;25.60;;;21.30;;
41167;SDS011;26906;45.658;9.272;2022-11-15T17:49:13;26.73;;;20.98;;
41167;SDS011;26906;45.658;9.272;2022-11-15T17:51:38;24.13;;;19.30;;
41167;SDS011;26906;45.658;9.272;2022-11-15T17:54:04;28.55;;;22.13;;
41167;SDS011;26906;45.658;9.272;2022-11-15T17:56:30;22.60;;;19.48;;
41167;SDS011;26906;45.658;9.272;2022-11-15T17:58:56;24.65;;;19.77;;
41167;SDS011;26906;45.658;9.272;2022-11-15T18:03:56;28.13;;;21.10;;
41167;SDS011;26906;45.658;9.272;2022-11-15T18:06:25;26.77;;;20.83;;
41167;SDS011;26906;45.658;9.272;2022-11-15T18:08:53;29.42;;;22.02;;
41167;SDS011;26906;45.658;9.272;2022-11-15T18:13:50;29.33;;;22.23;;
41167;SDS011;26906;45.658;9.272;2022-11-15T18:16:21;28.20;;;21.20;;
41167;SDS011;26906;45.658;9.272;2022-11-15T18:18:50;25.33;;;22.13;;
41167;SDS011;26906;45.658;9.272;2022-11-15T18:21:19;26.23;;;20.58;;
41167;SDS011;26906;45.658;9.272;2022-11-15T18:23:47;24.83;;;19.80;;
41167;SDS011;26906;45.658;9.272;2022-11-15T18:26:14;26.23;;;19.55;;
41167;SDS011;26906;45.658;9.272;2022-11-15T18:28:45;25.85;;;19.55;;
41167;SDS011;26906;45.658;9.272;2022-11-15T18:31:13;25.05;;;18.75;;
41167;SDS011;26906;45.658;9.272;2022-11-15T18:33:39;23.33;;;18.55;;
41167;SDS011;26906;45.658;9.272;2022-11-15T18:36:06;21.45;;;17.55;;
41167;SDS011;26906;45.658;9.272;2022-11-15T18:38:34;23.73;;;18.50;;
41167;SDS011;26906;45.658;9.272;2022-11-15T18:41:33;23.00;;;18.45;;
41167;SDS011;26906;45.658;9.272;2022-11-15T18:43:53;22.92;;;17.88;;
41167;SDS011;26906;45.658;9.272;2022-11-15T18:46:21;24.13;;;17.85;;
41167;SDS011;26906;45.658;9.272;2022-11-15T18:48:49;22.88;;;18.67;;
41167;SDS011;26906;45.658;9.272;2022-11-15T18:51:16;20.65;;;17.52;;
41167;SDS011;26906;45.658;9.272;2022-11-15T18:53:43;21.10;;;17.75;;
41167;SDS011;26906;45.658;9.272;2022-11-15T18:58:40;22.50;;;18.23;;
41167;SDS011;26906;45.658;9.272;2022-11-15T19:03:37;26.40;;;19.42;;
41167;SDS011;26906;45.658;9.272;2022-11-15T19:06:05;27.73;;;20.33;;
41167;SDS011;26906;45.658;9.272;2022-11-15T19:08:35;28.27;;;21.05;;
41167;SDS011;26906;45.658;9.272;2022-11-15T19:11:05;31.30;;;22.92;;
41167;SDS011;26906;45.658;9.272;2022-11-15T19:13:33;29.92;;;20.48;;
41167;SDS011;26906;45.658;9.272;2022-11-15T19:16:00;27.23;;;20.63;;
41167;SDS011;26906;45.658;9.272;2022-11-15T19:18:27;24.42;;;18.90;;
41167;SDS011;26906;45.658;9.272;2022-11-15T19:20:54;22.60;;;18.45;;
41167;SDS011;26906;45.658;9.272;2022-11-15T19:23:21;25.05;;;19.92;;
41167;SDS011;26906;45.658;9.272;2022-11-15T19:25:58;23.45;;;18.95;;
41167;SDS011;26906;45.658;9.272;2022-11-15T19:28:25;21.42;;;18.02;;
41167;SDS011;26906;45.658;9.272;2022-11-15T19:30:52;21.92;;;18.33;;
41167;SDS011;26906;45.658;9.272;2022-11-15T19:33:20;22.52;;;18.15;;
41167;SDS011;26906;45.658;9.272;2022-11-15T19:35:46;24.48;;;19.15;;
41167;SDS011;26906;45.658;9.272;2022-11-15T19:38:12;24.17;;;18.27;;
41167;SDS011;26906;45.658;9.272;2022-11-15T19:40:38;20.90;;;17.67;;
41167;SDS011;26906;45.658;9.272;2022-11-15T19:43:04;19.42;;;16.35;;
41167;SDS011;26906;45.658;9.272;2022-11-15T19:45:30;18.83;;;16.02;;
41167;SDS011;26906;45.658;9.272;2022-11-15T19:47:56;17.73;;;15.65;;
41167;SDS011;26906;45.658;9.272;2022-11-15T19:50:23;17.98;;;15.32;;
41167;SDS011;26906;45.658;9.272;2022-11-15T19:52:49;20.02;;;16.45;;
41167;SDS011;26906;45.658;9.272;2022-11-15T19:55:15;18.80;;;14.10;;
41167;SDS011;26906;45.658;9.272;2022-11-15T19:57:41;17.00;;;14.10;;
41167;SDS011;26906;45.658;9.272;2022-11-15T20:00:07;17.38;;;13.90;;
41167;SDS011;26906;45.658;9.272;2022-11-15T20:02:33;17.02;;;14.23;;
41167;SDS011;26906;45.658;9.272;2022-11-15T20:04:59;18.20;;;14.32;;
41167;SDS011;26906;45.658;9.272;2022-11-15T20:07:25;18.08;;;15.73;;
41167;SDS011;26906;45.658;9.272;2022-11-15T20:09:50;17.10;;;15.23;;
41167;SDS011;26906;45.658;9.272;2022-11-15T20:12:16;17.02;;;14.98;;
41167;SDS011;26906;45.658;9.272;2022-11-15T20:14:42;15.73;;;13.95;;
41167;SDS011;26906;45.658;9.272;2022-11-15T20:17:09;17.58;;;14.40;;
41167;SDS011;26906;45.658;9.272;2022-11-15T20:19:35;25.10;;;21.30;;
41167;SDS011;26906;45.658;9.272;2022-11-15T20:22:01;22.98;;;18.05;;
41167;SDS011;26906;45.658;9.272;2022-11-15T20:24:26;24.48;;;20.10;;
41167;SDS011;26906;45.658;9.272;2022-11-15T20:26:52;18.13;;;15.77;;
41167;SDS011;26906;45.658;9.272;2022-11-15T20:29:18;16.88;;;14.23;;
41167;SDS011;26906;45.658;9.272;2022-11-15T20:31:43;17.17;;;15.48;;
41167;SDS011;26906;45.658;9.272;2022-11-15T20:34:09;17.98;;;16.08;;
41167;SDS011;26906;45.658;9.272;2022-11-15T20:36:35;17.65;;;15.35;;
41167;SDS011;26906;45.658;9.272;2022-11-15T20:39:01;15.02;;;13.43;;
41167;SDS011;26906;45.658;9.272;2022-11-15T20:41:27;14.52;;;13.02;;
41167;SDS011;26906;45.658;9.272;2022-11-15T20:43:53;15.32;;;12.27;;
41167;SDS011;26906;45.658;9.272;2022-11-15T20:46:19;13.30;;;11.73;;
41167;SDS011;26906;45.658;9.272;2022-11-15T20:48:46;14.27;;;12.27;;
